Time;durP1;ratioP1;P1;durP2;ratioP2;P2;SDS_P1;SDS_P2;PMS_P1;PMS_P2;Temp;Humidity;BMP_temperature;BMP_pressure;BME280_temperature;BME280_humidity;BME280_pressure;Samples;Min_cycle;Max_cycle;Signal;HPM_P1;HPM_P2
2023/09/26 00:02:26;;;;;;;15.18;10.07;;;;;;;;;;5096400;28;20044;-57
2023/09/26 00:04:52;;;;;;;13.95;9.98;;;;;;;;;;5058813;28;20755;-57
2023/09/26 00:07:18;;;;;;;15.48;10.32;;;;;;;;;;5061340;28;20051;-57
2023/09/26 00:09:45;;;;;;;15.88;11.35;;;;;;;;;;5058292;28;20126;-58
2023/09/26 00:12:11;;;;;;;13.52;9.52;;;;;;;;;;5059641;28;20041;-57
2023/09/26 00:14:38;;;;;;;14.00;10.55;;;;;;;;;;5060084;28;20040;-57
2023/09/26 00:17:05;;;;;;;13.90;9.88;;;;;;;;;;5060834;28;20463;-57
2023/09/26 00:19:31;;;;;;;13.43;9.48;;;;;;;;;;5057001;28;20465;-57
2023/09/26 00:21:57;;;;;;;13.73;8.80;;;;;;;;;;5059716;28;20053;-57
2023/09/26 00:24:23;;;;;;;16.33;8.82;;;;;;;;;;5061144;28;20064;-57
2023/09/26 00:26:50;;;;;;;14.57;10.45;;;;;;;;;;5064530;28;20056;-57
2023/09/26 00:29:16;;;;;;;14.50;9.40;;;;;;;;;;5052878;28;20048;-57
2023/09/26 00:31:42;;;;;;;13.45;8.57;;;;;;;;;;5057125;28;20171;-58
2023/09/26 00:34:08;;;;;;;12.65;9.45;;;;;;;;;;5053039;28;20056;-57
2023/09/26 00:36:34;;;;;;;11.35;8.93;;;;;;;;;;5061187;28;20040;-57
2023/09/26 00:39:00;;;;;;;13.60;9.57;;;;;;;;;;5057743;28;20515;-57
2023/09/26 00:41:27;;;;;;;12.18;9.40;;;;;;;;;;5058822;28;20075;-57
2023/09/26 00:43:53;;;;;;;15.45;9.75;;;;;;;;;;5053455;28;20049;-57
2023/09/26 00:46:19;;;;;;;14.75;10.25;;;;;;;;;;5058423;28;20068;-57
2023/09/26 00:48:45;;;;;;;14.82;9.13;;;;;;;;;;5057617;28;20507;-57
2023/09/26 00:51:12;;;;;;;13.90;10.15;;;;;;;;;;5061945;28;20424;-57
2023/09/26 00:53:39;;;;;;;16.58;9.73;;;;;;;;;;5067015;28;20044;-57
2023/09/26 00:56:05;;;;;;;13.70;8.80;;;;;;;;;;5066762;28;20032;-57
2023/09/26 00:58:32;;;;;;;12.25;9.27;;;;;;;;;;5066022;28;20040;-57
2023/09/26 01:00:58;;;;;;;15.00;9.70;;;;;;;;;;5064628;28;20446;-57
2023/09/26 01:03:24;;;;;;;16.38;11.48;;;;;;;;;;5063637;28;20058;-57
2023/09/26 01:05:50;;;;;;;13.73;9.05;;;;;;;;;;5065267;28;22198;-57
2023/09/26 01:08:17;;;;;;;12.93;8.65;;;;;;;;;;5062770;28;20036;-57
2023/09/26 01:10:44;;;;;;;13.05;9.15;;;;;;;;;;5062321;28;20032;-58
2023/09/26 01:13:11;;;;;;;14.98;9.20;;;;;;;;;;5062231;28;20052;-57
2023/09/26 01:15:39;;;;;;;11.93;8.65;;;;;;;;;;5064518;28;20519;-57
2023/09/26 01:18:09;;;;;;;14.35;9.55;;;;;;;;;;5062603;28;20050;-57
2023/09/26 01:20:38;;;;;;;13.82;9.30;;;;;;;;;;5065741;28;20516;-57
2023/09/26 01:23:06;;;;;;;15.05;10.30;;;;;;;;;;5063560;28;20044;-57
2023/09/26 01:25:33;;;;;;;16.08;9.48;;;;;;;;;;5058404;28;20041;-57
2023/09/26 01:28:05;;;;;;;14.75;8.65;;;;;;;;;;5058081;28;20064;-57
2023/09/26 01:30:33;;;;;;;10.52;8.25;;;;;;;;;;5062448;28;20041;-57
2023/09/26 01:33:00;;;;;;;11.57;9.85;;;;;;;;;;5063349;28;20051;-57
2023/09/26 01:35:26;;;;;;;11.73;9.00;;;;;;;;;;5062719;28;20124;-57
2023/09/26 01:37:53;;;;;;;13.13;9.85;;;;;;;;;;5064316;28;20040;-57
2023/09/26 01:40:19;;;;;;;12.85;9.77;;;;;;;;;;5064487;28;20111;-57
2023/09/26 01:42:45;;;;;;;13.65;11.23;;;;;;;;;;5066040;28;20186;-57
2023/09/26 01:45:11;;;;;;;11.88;9.68;;;;;;;;;;5065679;28;20492;-57
2023/09/26 01:47:47;;;;;;;19.83;11.65;;;;;;;;;;5068752;28;20052;-57
2023/09/26 01:50:14;;;;;;;14.02;10.65;;;;;;;;;;5066766;28;20110;-57
2023/09/26 01:52:40;;;;;;;20.30;12.32;;;;;;;;;;5067098;28;20102;-58
2023/09/26 01:55:07;;;;;;;16.92;11.20;;;;;;;;;;5060925;28;20135;-58
2023/09/26 01:57:33;;;;;;;14.63;11.48;;;;;;;;;;5066253;28;20084;-57
2023/09/26 02:00:01;;;;;;;15.05;10.43;;;;;;;;;;5069704;28;20041;-57
2023/09/26 02:02:27;;;;;;;13.63;10.63;;;;;;;;;;5063343;28;20060;-57
2023/09/26 02:04:54;;;;;;;15.93;10.75;;;;;;;;;;5071239;28;20154;-57
2023/09/26 02:07:20;;;;;;;14.77;11.35;;;;;;;;;;5071340;28;20043;-57
2023/09/26 02:09:46;;;;;;;15.95;10.88;;;;;;;;;;5057343;28;20110;-57
2023/09/26 02:12:12;;;;;;;13.55;11.02;;;;;;;;;;5068777;28;20047;-58
2023/09/26 02:14:38;;;;;;;13.15;11.05;;;;;;;;;;5069457;28;20049;-57
2023/09/26 02:17:04;;;;;;;11.60;10.18;;;;;;;;;;5070997;28;20036;-57
2023/09/26 02:19:31;;;;;;;13.63;10.05;;;;;;;;;;5069830;28;20060;-57
2023/09/26 02:21:57;;;;;;;13.88;9.98;;;;;;;;;;5066810;28;20055;-57
2023/09/26 02:24:23;;;;;;;12.85;9.93;;;;;;;;;;5070763;28;20060;-57
2023/09/26 02:26:49;;;;;;;18.80;11.48;;;;;;;;;;5069315;28;20516;-58
2023/09/26 02:29:15;;;;;;;16.48;12.23;;;;;;;;;;5062937;28;20105;-57
2023/09/26 02:31:41;;;;;;;15.52;11.93;;;;;;;;;;5066824;28;20052;-57
2023/09/26 02:34:07;;;;;;;17.98;11.95;;;;;;;;;;5067901;28;20134;-57
2023/09/26 02:36:34;;;;;;;15.63;12.10;;;;;;;;;;5070474;28;20139;-57
2023/09/26 02:39:00;;;;;;;15.10;12.48;;;;;;;;;;5069085;28;20109;-57
2023/09/26 02:41:26;;;;;;;19.15;11.57;;;;;;;;;;5065215;28;20400;-57
2023/09/26 02:43:55;;;;;;;15.23;10.25;;;;;;;;;;5061663;28;20049;-57
2023/09/26 02:46:21;;;;;;;16.30;10.57;;;;;;;;;;5069602;28;20189;-57
2023/09/26 02:48:48;;;;;;;13.25;9.43;;;;;;;;;;5061517;28;20067;-57
2023/09/26 02:51:14;;;;;;;16.73;11.10;;;;;;;;;;5064634;28;20047;-57
2023/09/26 02:53:40;;;;;;;14.05;9.90;;;;;;;;;;5066587;28;20515;-57
2023/09/26 02:56:10;;;;;;;12.98;10.00;;;;;;;;;;5061109;28;20102;-57
2023/09/26 02:58:36;;;;;;;16.45;12.48;;;;;;;;;;5057890;28;20051;-57
2023/09/26 03:01:04;;;;;;;17.05;11.93;;;;;;;;;;5061442;28;20396;-57
2023/09/26 03:03:30;;;;;;;16.88;12.65;;;;;;;;;;5069620;28;20522;-57
2023/09/26 03:05:56;;;;;;;15.13;12.63;;;;;;;;;;5060476;28;20044;-57
2023/09/26 03:08:22;;;;;;;13.48;10.73;;;;;;;;;;5061557;28;20052;-57
2023/09/26 03:10:49;;;;;;;15.32;11.20;;;;;;;;;;5061030;28;20049;-57
2023/09/26 03:13:15;;;;;;;20.00;12.93;;;;;;;;;;5061028;28;20546;-57
2023/09/26 03:15:41;;;;;;;19.30;14.63;;;;;;;;;;5057987;28;20395;-57
2023/09/26 03:18:07;;;;;;;16.38;13.98;;;;;;;;;;5066595;28;20036;-57
2023/09/26 03:20:38;;;;;;;16.58;13.80;;;;;;;;;;5061559;28;20044;-57
2023/09/26 03:23:04;;;;;;;18.25;14.05;;;;;;;;;;5060979;28;20050;-57
2023/09/26 03:25:33;;;;;;;18.42;13.98;;;;;;;;;;5060886;28;20140;-57
2023/09/26 03:28:04;;;;;;;20.17;14.48;;;;;;;;;;5068933;28;20071;-57
2023/09/26 03:30:30;;;;;;;19.55;13.32;;;;;;;;;;5068813;28;20492;-57
2023/09/26 03:32:56;;;;;;;16.83;13.88;;;;;;;;;;5070793;28;20242;-57
2023/09/26 03:35:22;;;;;;;19.38;13.80;;;;;;;;;;5069319;28;20108;-57
2023/09/26 03:37:48;;;;;;;17.33;13.75;;;;;;;;;;5058769;28;20067;-57
2023/09/26 03:40:15;;;;;;;20.63;14.60;;;;;;;;;;5058821;28;20131;-57
2023/09/26 03:42:41;;;;;;;21.35;15.45;;;;;;;;;;5059757;28;20048;-57
2023/09/26 03:45:08;;;;;;;20.33;15.50;;;;;;;;;;5061276;28;20148;-57
2023/09/26 03:47:34;;;;;;;22.75;15.35;;;;;;;;;;5067434;28;20083;-57
2023/09/26 03:50:00;;;;;;;18.63;15.48;;;;;;;;;;5060594;28;20064;-57
2023/09/26 03:52:26;;;;;;;18.20;15.05;;;;;;;;;;5062961;28;20434;-57
2023/09/26 03:54:53;;;;;;;17.25;14.35;;;;;;;;;;5063783;28;20056;-57
2023/09/26 03:57:19;;;;;;;20.38;15.07;;;;;;;;;;5064579;28;20455;-57
2023/09/26 03:59:49;;;;;;;18.25;15.18;;;;;;;;;;5056905;28;20052;-57
2023/09/26 04:02:15;;;;;;;18.42;14.45;;;;;;;;;;5065104;28;20090;-58
2023/09/26 04:04:41;;;;;;;18.80;14.85;;;;;;;;;;5063225;28;20078;-57
2023/09/26 04:07:07;;;;;;;20.38;14.70;;;;;;;;;;5064076;28;20097;-57
2023/09/26 04:09:34;;;;;;;19.77;14.85;;;;;;;;;;5059014;28;20492;-57
2023/09/26 04:12:01;;;;;;;20.10;16.67;;;;;;;;;;5055963;28;20055;-57
2023/09/26 04:14:28;;;;;;;20.92;16.23;;;;;;;;;;5058086;28;20032;-57
2023/09/26 04:16:54;;;;;;;19.80;16.88;;;;;;;;;;5057786;28;20040;-58
2023/09/26 04:19:20;;;;;;;21.95;17.77;;;;;;;;;;5060555;28;20071;-57
2023/09/26 04:21:46;;;;;;;20.98;16.25;;;;;;;;;;5061971;28;20138;-57
2023/09/26 04:24:12;;;;;;;21.80;17.33;;;;;;;;;;5062358;28;20093;-57
2023/09/26 04:26:39;;;;;;;21.27;16.15;;;;;;;;;;5064528;28;20047;-57
2023/09/26 04:29:05;;;;;;;22.08;15.98;;;;;;;;;;5059829;28;20055;-57
2023/09/26 04:31:31;;;;;;;20.38;16.38;;;;;;;;;;5064388;28;20537;-57
2023/09/26 04:33:57;;;;;;;20.77;16.25;;;;;;;;;;5063874;28;20060;-57
2023/09/26 04:36:24;;;;;;;19.75;15.93;;;;;;;;;;5065705;28;20435;-57
2023/09/26 04:38:50;;;;;;;21.65;16.75;;;;;;;;;;5063251;28;20125;-57
2023/09/26 04:41:16;;;;;;;18.85;16.38;;;;;;;;;;5063654;28;20120;-57
2023/09/26 04:43:42;;;;;;;23.52;16.70;;;;;;;;;;5065506;28;20051;-57
2023/09/26 04:46:12;;;;;;;20.48;15.75;;;;;;;;;;5065346;28;20055;-57
2023/09/26 04:48:39;;;;;;;25.45;16.90;;;;;;;;;;5064220;28;20053;-56
2023/09/26 04:51:08;;;;;;;20.05;16.27;;;;;;;;;;5060139;28;20041;-56
2023/09/26 04:53:35;;;;;;;22.13;16.40;;;;;;;;;;5061590;28;20059;-57
2023/09/26 04:56:04;;;;;;;22.83;16.25;;;;;;;;;;5063222;28;20440;-57
2023/09/26 04:58:32;;;;;;;21.65;16.52;;;;;;;;;;5064542;28;20037;-57
2023/09/26 05:01:00;;;;;;;20.83;16.10;;;;;;;;;;5062064;28;20382;-63
2023/09/26 05:03:27;;;;;;;19.17;15.73;;;;;;;;;;5062396;28;20516;-57
2023/09/26 05:05:54;;;;;;;17.55;14.65;;;;;;;;;;5070935;28;20067;-57
2023/09/26 05:08:20;;;;;;;22.08;15.82;;;;;;;;;;5071928;28;20527;-57
2023/09/26 05:10:48;;;;;;;20.20;15.55;;;;;;;;;;5072852;28;20048;-57
2023/09/26 05:13:15;;;;;;;23.02;17.35;;;;;;;;;;5072287;28;20063;-57
2023/09/26 05:15:41;;;;;;;17.80;14.80;;;;;;;;;;5071391;28;20045;-57
2023/09/26 05:18:07;;;;;;;20.42;15.45;;;;;;;;;;5059669;28;20037;-57
2023/09/26 05:20:34;;;;;;;23.52;16.50;;;;;;;;;;5072875;28;20064;-57
2023/09/26 05:23:00;;;;;;;18.88;15.10;;;;;;;;;;5067511;28;20425;-57
2023/09/26 05:25:27;;;;;;;20.17;15.35;;;;;;;;;;5063239;28;20441;-57
2023/09/26 05:27:54;;;;;;;18.13;14.75;;;;;;;;;;5072466;28;20040;-57
2023/09/26 05:30:20;;;;;;;18.30;14.65;;;;;;;;;;5070586;28;20492;-57
2023/09/26 05:32:46;;;;;;;18.15;14.23;;;;;;;;;;5062169;28;20045;-57
2023/09/26 05:35:12;;;;;;;19.15;15.27;;;;;;;;;;5070683;28;20071;-57
2023/09/26 05:37:38;;;;;;;19.67;14.70;;;;;;;;;;5072149;28;20058;-57
2023/09/26 05:40:09;;;;;;;18.42;14.52;;;;;;;;;;5069743;28;20411;-57
2023/09/26 05:42:39;;;;;;;19.80;14.85;;;;;;;;;;5070907;28;20088;-57
2023/09/26 05:45:06;;;;;;;19.25;15.02;;;;;;;;;;5065410;28;20049;-57
2023/09/26 05:47:32;;;;;;;22.35;15.10;;;;;;;;;;5060981;28;20510;-57
2023/09/26 05:50:00;;;;;;;18.42;14.98;;;;;;;;;;5061919;28;20041;-57
2023/09/26 05:52:26;;;;;;;20.15;14.63;;;;;;;;;;5061499;28;20040;-57
2023/09/26 05:54:52;;;;;;;17.60;14.95;;;;;;;;;;5063268;28;20076;-57
2023/09/26 05:57:18;;;;;;;18.60;13.88;;;;;;;;;;5061850;28;20128;-57
2023/09/26 05:59:45;;;;;;;19.75;15.07;;;;;;;;;;5063858;28;20037;-57
2023/09/26 06:02:14;;;;;;;19.50;14.93;;;;;;;;;;5066713;28;20076;-57
2023/09/26 06:04:41;;;;;;;22.08;15.50;;;;;;;;;;5063661;28;20523;-57
2023/09/26 06:07:08;;;;;;;19.17;14.77;;;;;;;;;;5061115;28;20045;-58
2023/09/26 06:09:35;;;;;;;21.25;14.85;;;;;;;;;;5059979;28;20428;-57
2023/09/26 06:12:01;;;;;;;18.40;14.85;;;;;;;;;;5062073;28;20052;-57
2023/09/26 06:14:28;;;;;;;18.17;14.93;;;;;;;;;;5063942;28;20046;-57
2023/09/26 06:16:54;;;;;;;18.50;14.63;;;;;;;;;;5062430;28;20055;-57
2023/09/26 06:19:20;;;;;;;23.20;14.25;;;;;;;;;;5063552;28;20183;-57
2023/09/26 06:21:46;;;;;;;18.75;14.65;;;;;;;;;;5063023;28;20044;-57
2023/09/26 06:24:12;;;;;;;21.70;15.75;;;;;;;;;;5064595;28;20040;-57
2023/09/26 06:26:38;;;;;;;16.90;14.88;;;;;;;;;;5064024;28;20040;-57
2023/09/26 06:29:05;;;;;;;19.10;15.38;;;;;;;;;;5064496;28;20040;-57
2023/09/26 06:31:31;;;;;;;19.88;15.38;;;;;;;;;;5064133;28;20157;-57
2023/09/26 06:34:00;;;;;;;20.67;15.55;;;;;;;;;;5063444;28;20048;-57
2023/09/26 06:36:30;;;;;;;20.73;15.25;;;;;;;;;;5064958;28;20404;-57
2023/09/26 06:38:59;;;;;;;20.50;16.25;;;;;;;;;;5067621;28;20041;-57
2023/09/26 06:41:26;;;;;;;22.25;16.38;;;;;;;;;;5071544;28;20044;-57
2023/09/26 06:43:52;;;;;;;24.00;16.13;;;;;;;;;;5061769;28;20076;-57
2023/09/26 06:46:18;;;;;;;18.90;14.90;;;;;;;;;;5056575;28;20047;-57
2023/09/26 06:48:45;;;;;;;20.58;14.40;;;;;;;;;;5055971;28;20381;-57
2023/09/26 06:51:11;;;;;;;19.23;14.60;;;;;;;;;;5067760;28;20037;-57
2023/09/26 06:53:37;;;;;;;18.15;15.10;;;;;;;;;;5058439;28;20055;-57
2023/09/26 06:56:04;;;;;;;20.70;14.82;;;;;;;;;;5059437;28;20098;-58
2023/09/26 06:58:30;;;;;;;19.48;14.70;;;;;;;;;;5071014;28;20041;-58
2023/09/26 07:00:57;;;;;;;18.92;14.13;;;;;;;;;;5063382;28;20083;-58
2023/09/26 07:03:23;;;;;;;26.15;16.02;;;;;;;;;;5070699;28;20104;-58
2023/09/26 07:05:49;;;;;;;19.23;15.63;;;;;;;;;;5066258;28;20044;-58
2023/09/26 07:08:16;;;;;;;19.33;15.63;;;;;;;;;;5066696;28;20036;-58
2023/09/26 07:10:42;;;;;;;24.38;15.63;;;;;;;;;;5072167;28;20045;-58
2023/09/26 07:13:08;;;;;;;24.08;17.08;;;;;;;;;;5067165;28;20127;-58
2023/09/26 07:15:35;;;;;;;21.83;17.42;;;;;;;;;;5061341;28;20072;-58
2023/09/26 07:18:06;;;;;;;19.77;15.65;;;;;;;;;;5063614;28;20115;-58
2023/09/26 07:20:33;;;;;;;20.90;14.80;;;;;;;;;;5071060;28;20374;-58
2023/09/26 07:23:00;;;;;;;22.67;16.27;;;;;;;;;;5070389;28;20049;-58
2023/09/26 07:25:27;;;;;;;18.17;14.73;;;;;;;;;;5070255;28;20128;-58
2023/09/26 07:27:53;;;;;;;21.08;14.30;;;;;;;;;;5069685;28;20521;-58
2023/09/26 07:30:19;;;;;;;19.88;14.23;;;;;;;;;;5070729;28;20059;-58
2023/09/26 07:32:45;;;;;;;16.80;13.45;;;;;;;;;;5070497;28;20044;-58
2023/09/26 07:35:11;;;;;;;18.20;13.88;;;;;;;;;;5070340;28;20051;-58
2023/09/26 07:37:38;;;;;;;17.67;14.10;;;;;;;;;;5069463;28;20108;-58
2023/09/26 07:40:05;;;;;;;20.50;15.15;;;;;;;;;;5070867;28;20052;-58
2023/09/26 07:42:33;;;;;;;18.50;14.65;;;;;;;;;;5069972;28;20139;-60
2023/09/26 07:44:59;;;;;;;16.42;13.82;;;;;;;;;;5070806;28;20051;-58
2023/09/26 07:47:25;;;;;;;17.20;13.95;;;;;;;;;;5067993;28;20443;-60
2023/09/26 07:49:51;;;;;;;20.83;13.55;;;;;;;;;;5069395;28;20064;-58
2023/09/26 07:52:17;;;;;;;16.17;12.93;;;;;;;;;;5070675;28;20193;-58
2023/09/26 07:54:43;;;;;;;19.75;13.52;;;;;;;;;;5070655;28;20047;-58
2023/09/26 07:57:10;;;;;;;21.27;14.35;;;;;;;;;;5068963;28;20516;-58
2023/09/26 07:59:37;;;;;;;19.85;14.88;;;;;;;;;;5070444;28;20071;-58
2023/09/26 08:02:03;;;;;;;14.57;11.75;;;;;;;;;;5066744;28;20102;-58
2023/09/26 08:04:30;;;;;;;19.17;12.63;;;;;;;;;;5063123;28;20479;-58
2023/09/26 08:06:56;;;;;;;17.58;12.52;;;;;;;;;;5097134;28;20049;-58
2023/09/26 08:09:22;;;;;;;16.80;12.13;;;;;;;;;;5062429;28;20113;-58
2023/09/26 08:11:48;;;;;;;16.65;12.55;;;;;;;;;;5061260;28;20425;-58
2023/09/26 08:14:14;;;;;;;18.42;13.05;;;;;;;;;;5062512;28;20040;-58
2023/09/26 08:16:41;;;;;;;18.35;13.50;;;;;;;;;;5065204;28;20080;-58
2023/09/26 08:19:07;;;;;;;15.82;12.57;;;;;;;;;;5061194;28;20071;-58
2023/09/26 08:21:33;;;;;;;20.48;14.20;;;;;;;;;;5065278;28;20108;-58
2023/09/26 08:23:59;;;;;;;21.67;13.77;;;;;;;;;;5062965;28;20056;-58
2023/09/26 08:26:25;;;;;;;15.30;12.80;;;;;;;;;;5063084;28;20463;-58
2023/09/26 08:28:52;;;;;;;17.10;12.57;;;;;;;;;;5063293;28;20048;-58
2023/09/26 08:31:18;;;;;;;15.82;11.25;;;;;;;;;;5063123;28;20155;-58
2023/09/26 08:33:44;;;;;;;18.27;12.43;;;;;;;;;;5060811;28;20048;-58
2023/09/26 08:36:17;;;;;;;14.10;11.93;;;;;;;;;;5061387;28;20188;-58
2023/09/26 08:38:44;;;;;;;16.95;11.25;;;;;;;;;;5061213;28;20037;-58
2023/09/26 08:41:10;;;;;;;17.63;12.20;;;;;;;;;;5061378;28;20041;-58
2023/09/26 08:43:37;;;;;;;14.50;11.90;;;;;;;;;;5061483;28;20086;-58
2023/09/26 08:46:04;;;;;;;17.10;11.50;;;;;;;;;;5060296;28;20465;-59
2023/09/26 08:48:30;;;;;;;14.45;11.30;;;;;;;;;;5061912;28;20053;-57
2023/09/26 08:50:57;;;;;;;14.20;11.63;;;;;;;;;;5066040;28;20155;-58
2023/09/26 08:53:23;;;;;;;14.40;11.38;;;;;;;;;;5059953;28;20184;-58
2023/09/26 08:55:49;;;;;;;17.13;11.68;;;;;;;;;;5061460;28;20045;-58
2023/09/26 08:58:16;;;;;;;16.23;11.25;;;;;;;;;;5065259;28;20047;-58
2023/09/26 09:00:43;;;;;;;15.35;10.43;;;;;;;;;;5069035;28;20037;-58
2023/09/26 09:03:09;;;;;;;19.02;11.23;;;;;;;;;;5069864;28;20125;-58
2023/09/26 09:05:35;;;;;;;16.40;10.82;;;;;;;;;;5068610;28;20037;-58
2023/09/26 09:08:01;;;;;;;16.02;10.93;;;;;;;;;;5068552;28;20052;-58
2023/09/26 09:10:28;;;;;;;14.13;10.32;;;;;;;;;;5055739;28;20044;-58
2023/09/26 09:13:04;;;;;;;18.17;11.52;;;;;;;;;;5069119;28;20491;-58
2023/09/26 09:15:30;;;;;;;15.02;10.23;;;;;;;;;;5072839;28;20037;-58
2023/09/26 09:17:57;;;;;;;16.23;10.15;;;;;;;;;;5072445;28;20042;-59
2023/09/26 09:20:35;;;;;;;18.50;11.32;;;;;;;;;;5063207;28;20032;-58
2023/09/26 09:23:05;;;;;;;15.73;11.27;;;;;;;;;;5071644;28;20093;-58
2023/09/26 09:25:32;;;;;;;15.38;10.38;;;;;;;;;;5073388;28;20033;-58
2023/09/26 09:28:03;;;;;;;14.75;11.30;;;;;;;;;;5067429;28;20072;-58
2023/09/26 09:30:29;;;;;;;15.23;11.10;;;;;;;;;;5069782;28;20087;-58
2023/09/26 09:32:56;;;;;;;18.90;11.18;;;;;;;;;;5066318;28;20433;-58
2023/09/26 09:35:22;;;;;;;15.63;11.32;;;;;;;;;;5067313;28;20080;-58
2023/09/26 09:37:50;;;;;;;15.15;11.25;;;;;;;;;;5053987;28;20044;-58
2023/09/26 09:40:22;;;;;;;18.08;11.02;;;;;;;;;;5059958;28;20047;-58
2023/09/26 09:42:49;;;;;;;22.00;12.38;;;;;;;;;;5057109;28;20052;-56
2023/09/26 09:45:15;;;;;;;15.05;10.57;;;;;;;;;;5072161;28;20048;-57
2023/09/26 09:47:44;;;;;;;14.30;11.23;;;;;;;;;;5065601;28;20405;-57
2023/09/26 09:50:12;;;;;;;15.20;10.82;;;;;;;;;;5057014;28;20052;-56
2023/09/26 09:52:40;;;;;;;15.73;10.68;;;;;;;;;;5061089;28;20437;-57
2023/09/26 09:55:08;;;;;;;18.88;12.45;;;;;;;;;;5070007;28;20060;-56
2023/09/26 09:57:36;;;;;;;17.85;11.18;;;;;;;;;;5070947;28;20032;-56
2023/09/26 10:00:05;;;;;;;18.27;12.52;;;;;;;;;;5067672;28;20055;-56
2023/09/26 10:02:32;;;;;;;18.65;11.18;;;;;;;;;;5070272;28;20131;-57
2023/09/26 10:05:00;;;;;;;17.92;11.00;;;;;;;;;;5072366;28;20059;-56
2023/09/26 10:07:27;;;;;;;15.95;10.80;;;;;;;;;;5071368;28;20036;-56
2023/09/26 10:09:53;;;;;;;17.08;10.77;;;;;;;;;;5071543;28;20539;-56
2023/09/26 10:12:20;;;;;;;15.52;9.68;;;;;;;;;;5071753;28;20373;-56
2023/09/26 10:14:46;;;;;;;14.85;9.52;;;;;;;;;;5070379;28;20123;-56
2023/09/26 10:17:14;;;;;;;15.10;9.85;;;;;;;;;;5070580;28;20561;-57
2023/09/26 10:19:42;;;;;;;17.52;10.18;;;;;;;;;;5069732;28;20481;-57
2023/09/26 10:22:18;;;;;;;20.30;10.45;;;;;;;;;;5060916;28;20382;-56
2023/09/26 10:24:54;;;;;;;16.48;10.73;;;;;;;;;;5056138;28;20106;-56
2023/09/26 10:27:24;;;;;;;20.48;9.88;;;;;;;;;;5070260;28;20075;-57
2023/09/26 10:29:52;;;;;;;14.57;9.60;;;;;;;;;;5065004;28;20102;-56
2023/09/26 10:32:32;;;;;;;16.40;10.18;;;;;;;;;;5070488;28;20075;-56
2023/09/26 10:34:59;;;;;;;13.60;9.85;;;;;;;;;;5070816;28;20071;-57
2023/09/26 10:37:28;;;;;;;15.95;10.30;;;;;;;;;;5069306;28;20032;-57
2023/09/26 10:39:54;;;;;;;13.30;9.43;;;;;;;;;;5067268;28;20044;-57
2023/09/26 10:42:22;;;;;;;13.07;10.20;;;;;;;;;;5066611;28;20484;-59
2023/09/26 10:44:51;;;;;;;14.43;9.98;;;;;;;;;;5069079;28;20044;-58
2023/09/26 10:47:18;;;;;;;19.23;10.85;;;;;;;;;;5067453;28;20089;-60
2023/09/26 10:49:44;;;;;;;13.50;9.30;;;;;;;;;;5062624;28;20434;-59
2023/09/26 10:52:11;;;;;;;15.15;10.05;;;;;;;;;;5051369;28;20124;-59
2023/09/26 10:54:39;;;;;;;13.57;9.52;;;;;;;;;;5069331;28;20128;-58
2023/09/26 10:57:06;;;;;;;14.38;9.18;;;;;;;;;;5062024;28;20071;-59
2023/09/26 10:59:32;;;;;;;11.00;8.43;;;;;;;;;;5065039;28;20055;-59
2023/09/26 11:01:59;;;;;;;12.70;9.38;;;;;;;;;;5066877;28;20049;-59
2023/09/26 11:04:31;;;;;;;14.05;9.80;;;;;;;;;;5059724;28;20127;-59
2023/09/26 11:06:57;;;;;;;14.65;8.57;;;;;;;;;;5062223;28;20071;-59
2023/09/26 11:09:24;;;;;;;14.77;8.90;;;;;;;;;;5064330;28;20504;-59
2023/09/26 11:11:50;;;;;;;13.70;7.72;;;;;;;;;;5066264;28;20051;-58
2023/09/26 11:14:17;;;;;;;14.63;8.82;;;;;;;;;;5070007;28;20044;-59
2023/09/26 11:16:43;;;;;;;14.65;7.28;;;;;;;;;;5067178;28;20063;-59
2023/09/26 11:19:09;;;;;;;11.50;7.10;;;;;;;;;;5054020;28;20557;-59
2023/09/26 11:21:36;;;;;;;10.95;6.40;;;;;;;;;;5062372;28;20056;-59
2023/09/26 11:24:18;;;;;;;14.00;7.20;;;;;;;;;;5069455;28;20060;-59
2023/09/26 11:26:45;;;;;;;10.63;6.93;;;;;;;;;;5069741;28;20083;-59
2023/09/26 11:29:12;;;;;;;10.23;6.63;;;;;;;;;;5065946;28;20547;-59
2023/09/26 11:31:38;;;;;;;9.38;5.95;;;;;;;;;;5057233;28;20064;-59
2023/09/26 11:34:05;;;;;;;13.40;6.07;;;;;;;;;;5061645;28;20045;-59
2023/09/26 11:36:32;;;;;;;10.93;6.25;;;;;;;;;;5067315;28;20087;-59
2023/09/26 11:39:00;;;;;;;9.07;5.32;;;;;;;;;;5069299;28;20385;-59
2023/09/26 11:41:26;;;;;;;12.13;5.88;;;;;;;;;;5054215;28;20037;-59
2023/09/26 11:43:55;;;;;;;8.27;4.70;;;;;;;;;;5058341;28;20565;-59
2023/09/26 11:46:23;;;;;;;9.65;5.25;;;;;;;;;;5068746;28;20040;-59
2023/09/26 11:48:49;;;;;;;9.35;4.60;;;;;;;;;;5057652;28;20060;-59
2023/09/26 11:51:15;;;;;;;9.40;4.50;;;;;;;;;;5069118;28;20047;-59
2023/09/26 11:53:41;;;;;;;15.93;6.07;;;;;;;;;;5069419;28;20395;-59
2023/09/26 11:56:08;;;;;;;7.82;4.53;;;;;;;;;;5064979;28;20369;-59
2023/09/26 11:58:36;;;;;;;11.40;5.20;;;;;;;;;;5077188;28;20127;-59
2023/09/26 12:01:04;;;;;;;11.98;5.65;;;;;;;;;;5070512;28;20121;-59
2023/09/26 12:03:30;;;;;;;9.35;5.05;;;;;;;;;;5067983;28;20109;-59
2023/09/26 12:05:57;;;;;;;10.52;5.05;;;;;;;;;;5059297;28;20047;-59
2023/09/26 12:08:25;;;;;;;7.75;4.63;;;;;;;;;;5065210;28;20048;-59
2023/09/26 12:10:51;;;;;;;10.15;4.93;;;;;;;;;;5069130;28;20127;-59
2023/09/26 12:13:17;;;;;;;9.63;5.25;;;;;;;;;;5065941;28;20489;-59
2023/09/26 12:15:44;;;;;;;8.93;4.63;;;;;;;;;;5061278;28;20036;-59
2023/09/26 12:18:10;;;;;;;10.23;4.85;;;;;;;;;;5061834;28;20052;-59
2023/09/26 12:20:36;;;;;;;9.88;4.93;;;;;;;;;;5064616;28;20048;-59
2023/09/26 12:23:02;;;;;;;10.73;5.35;;;;;;;;;;5067642;28;20530;-59
2023/09/26 12:25:30;;;;;;;8.45;4.82;;;;;;;;;;5065022;28;20036;-59
2023/09/26 12:27:56;;;;;;;9.10;5.30;;;;;;;;;;5064454;28;20044;-59
2023/09/26 12:30:22;;;;;;;7.80;4.53;;;;;;;;;;5054581;28;20374;-59
2023/09/26 12:32:51;;;;;;;9.40;5.05;;;;;;;;;;5069623;28;20531;-59
2023/09/26 12:35:18;;;;;;;8.07;4.00;;;;;;;;;;5064809;28;20365;-59
2023/09/26 12:37:45;;;;;;;7.85;4.30;;;;;;;;;;5054030;28;20055;-59
2023/09/26 12:40:14;;;;;;;7.85;4.50;;;;;;;;;;5059301;28;20489;-59
2023/09/26 12:42:41;;;;;;;13.90;5.35;;;;;;;;;;5066008;28;20039;-59
2023/09/26 12:45:08;;;;;;;7.47;4.75;;;;;;;;;;5058503;28;20124;-59
2023/09/26 12:47:34;;;;;;;11.23;5.25;;;;;;;;;;5062089;28;20070;-59
2023/09/26 12:50:07;;;;;;;10.38;5.53;;;;;;;;;;5069542;28;20055;-59
2023/09/26 12:52:33;;;;;;;9.88;6.10;;;;;;;;;;5064764;28;20057;-59
2023/09/26 12:55:00;;;;;;;10.25;5.28;;;;;;;;;;5064322;28;20396;-59
2023/09/26 12:57:26;;;;;;;9.18;5.90;;;;;;;;;;5068294;28;20120;-59
2023/09/26 12:59:53;;;;;;;9.30;5.30;;;;;;;;;;5057219;28;20433;-59
2023/09/26 13:02:22;;;;;;;10.10;5.55;;;;;;;;;;5071989;28;20075;-59
2023/09/26 13:04:48;;;;;;;10.35;5.72;;;;;;;;;;5063384;28;20130;-59
2023/09/26 13:07:14;;;;;;;9.82;6.03;;;;;;;;;;5066287;28;20046;-59
2023/09/26 13:09:41;;;;;;;10.95;5.97;;;;;;;;;;5059705;28;20136;-58
2023/09/26 13:12:07;;;;;;;12.82;5.65;;;;;;;;;;5071401;28;20119;-59
2023/09/26 13:14:33;;;;;;;10.40;6.20;;;;;;;;;;5066620;28;20127;-59
2023/09/26 13:16:59;;;;;;;13.70;7.05;;;;;;;;;;5072517;28;20040;-59
2023/09/26 13:19:26;;;;;;;8.75;5.88;;;;;;;;;;5072708;28;20071;-59
2023/09/26 13:21:53;;;;;;;9.95;5.97;;;;;;;;;;5070613;28;20052;-59
2023/09/26 13:24:20;;;;;;;11.57;5.90;;;;;;;;;;5072336;28;20116;-59
2023/09/26 13:26:46;;;;;;;9.73;5.78;;;;;;;;;;5066693;28;20131;-59
2023/09/26 13:29:13;;;;;;;13.55;5.93;;;;;;;;;;5066210;28;20492;-59
2023/09/26 13:31:42;;;;;;;9.32;5.30;;;;;;;;;;5070428;28;20041;-59
2023/09/26 13:34:09;;;;;;;16.30;6.40;;;;;;;;;;5066639;28;20040;-59
2023/09/26 13:36:35;;;;;;;10.13;5.90;;;;;;;;;;5071845;28;20068;-59
2023/09/26 13:39:01;;;;;;;10.20;5.30;;;;;;;;;;5071365;28;20109;-59
2023/09/26 13:41:29;;;;;;;10.10;5.70;;;;;;;;;;5071444;28;20046;-59
2023/09/26 13:43:55;;;;;;;10.45;5.93;;;;;;;;;;5069161;28;20056;-59
2023/09/26 13:46:21;;;;;;;11.63;5.63;;;;;;;;;;5072048;28;20040;-59
2023/09/26 13:48:48;;;;;;;11.77;5.97;;;;;;;;;;5069003;28;20064;-59
2023/09/26 13:51:15;;;;;;;10.23;5.85;;;;;;;;;;5068053;28;20542;-59
2023/09/26 13:53:41;;;;;;;9.18;4.78;;;;;;;;;;5072159;28;20071;-59
2023/09/26 13:56:07;;;;;;;10.30;5.93;;;;;;;;;;5067349;28;20033;-59
2023/09/26 13:58:34;;;;;;;10.80;6.28;;;;;;;;;;5077940;28;20444;-59
2023/09/26 14:01:03;;;;;;;10.60;6.50;;;;;;;;;;5068525;28;20132;-57
2023/09/26 14:03:30;;;;;;;10.27;5.97;;;;;;;;;;5063355;28;20041;-59
2023/09/26 14:05:57;;;;;;;9.18;5.00;;;;;;;;;;5062986;28;20083;-58
2023/09/26 14:08:23;;;;;;;13.93;5.57;;;;;;;;;;5066294;28;20036;-59
2023/09/26 14:10:50;;;;;;;13.23;5.53;;;;;;;;;;5065280;28;20066;-59
2023/09/26 14:13:16;;;;;;;11.93;6.35;;;;;;;;;;5060465;28;20401;-59
2023/09/26 14:15:45;;;;;;;9.00;5.30;;;;;;;;;;5061766;28;20064;-59
2023/09/26 14:18:11;;;;;;;9.85;5.50;;;;;;;;;;5068166;28;20084;-59
2023/09/26 14:20:38;;;;;;;12.15;5.75;;;;;;;;;;5069259;28;20048;-59
2023/09/26 14:23:05;;;;;;;10.30;5.00;;;;;;;;;;5062863;28;20119;-59